Time;durP1;ratioP1;P1;durP2;ratioP2;P2;SDS_P1;SDS_P2;PMS_P1;PMS_P2;Temp;Humidity;BMP_temperature;BMP_pressure;BME280_temperature;BME280_humidity;BME280_pressure;Samples;Min_cycle;Max_cycle;Signal;HPM_P1;HPM_P2
2021/11/22 00:00:47;;;;;;;42.10;24.70;;;2.20;94.20;;;;;;5033051;28;20079;-75
2021/11/22 00:03:14;;;;;;;40.25;23.20;;;2.30;94.20;;;;;;5035190;28;20159;-75
2021/11/22 00:05:40;;;;;;;42.53;23.25;;;2.30;93.70;;;;;;5033855;28;20056;-75
2021/11/22 00:08:06;;;;;;;42.83;23.00;;;2.30;94.70;;;;;;5034818;28;20059;-75
2021/11/22 00:10:34;;;;;;;43.60;24.60;;;2.30;94.70;;;;;;5031774;28;20152;-75
2021/11/22 00:12:59;;;;;;;38.63;22.52;;;2.30;93.80;;;;;;5033281;28;20026;-75
2021/11/22 00:15:25;;;;;;;36.92;21.02;;;2.40;94.20;;;;;;5035067;28;20032;-75
2021/11/22 00:17:52;;;;;;;28.25;15.52;;;2.30;95.00;;;;;;5030123;28;20033;-75
2021/11/22 00:20:21;;;;;;;24.73;14.55;;;2.20;95.00;;;;;;5034357;28;20032;-75
2021/11/22 00:22:47;;;;;;;31.63;17.98;;;2.20;95.10;;;;;;5033810;28;20425;-75
2021/11/22 00:25:16;;;;;;;35.25;20.45;;;2.20;95.30;;;;;;5032393;28;20025;-75
2021/11/22 00:27:43;;;;;;;33.00;18.23;;;2.30;95.20;;;;;;5034255;28;20433;-75
2021/11/22 00:30:10;;;;;;;44.08;22.25;;;2.30;95.40;;;;;;5037261;28;20025;-75
2021/11/22 00:32:36;;;;;;;44.28;23.67;;;2.30;96.00;;;;;;5037125;28;20092;-75
2021/11/22 00:35:06;;;;;;;51.08;25.00;;;2.30;95.20;;;;;;5026316;28;20037;-75
2021/11/22 00:37:35;;;;;;;45.88;24.00;;;2.30;95.40;;;;;;5037539;28;20029;-75
2021/11/22 00:40:01;;;;;;;46.75;25.40;;;2.40;95.10;;;;;;5036013;28;20387;-75
2021/11/22 00:42:28;;;;;;;54.58;26.75;;;2.40;95.40;;;;;;5031613;28;20033;-75
2021/11/22 00:44:53;;;;;;;58.85;27.17;;;2.40;96.00;;;;;;5026925;28;20077;-75
2021/11/22 00:47:19;;;;;;;67.03;30.17;;;2.40;95.60;;;;;;5034875;28;20401;-75
2021/11/22 00:49:48;;;;;;;69.95;28.58;;;2.40;95.90;;;;;;5036309;28;20091;-75
2021/11/22 00:52:14;;;;;;;52.80;28.67;;;2.40;95.70;;;;;;5037938;28;20017;-75
2021/11/22 00:54:40;;;;;;;106.05;33.38;;;2.40;95.60;;;;;;5034607;28;20020;-75
2021/11/22 00:57:06;;;;;;;211.52;38.95;;;2.30;95.90;;;;;;5028294;28;20330;-75
2021/11/22 00:59:32;;;;;;;101.32;33.92;;;2.30;95.70;;;;;;5032771;28;20021;-75
2021/11/22 01:01:58;;;;;;;77.57;29.60;;;2.20;95.40;;;;;;5036786;28;20053;-75
2021/11/22 01:04:24;;;;;;;112.97;35.40;;;2.20;94.80;;;;;;5034449;28;20068;-75
2021/11/22 01:06:50;;;;;;;70.95;31.55;;;2.20;94.50;;;;;;5031889;28;20029;-75
2021/11/22 01:09:16;;;;;;;80.45;31.25;;;2.10;94.50;;;;;;5032272;28;20520;-75
2021/11/22 01:11:42;;;;;;;157.48;35.53;;;2.20;94.10;;;;;;5037679;28;20025;-75
2021/11/22 01:14:09;;;;;;;167.35;32.55;;;2.20;94.00;;;;;;5037925;28;20474;-75
2021/11/22 01:16:35;;;;;;;120.30;29.58;;;2.20;93.90;;;;;;5033486;28;20030;-75
2021/11/22 01:19:02;;;;;;;239.80;36.92;;;2.10;93.40;;;;;;5024084;28;20064;-75
2021/11/22 01:21:28;;;;;;;153.00;31.42;;;2.10;93.50;;;;;;5036247;28;20056;-75
2021/11/22 01:23:54;;;;;;;249.57;36.47;;;2.10;93.50;;;;;;5037058;28;20709;-75
2021/11/22 01:26:20;;;;;;;95.07;31.48;;;2.10;93.30;;;;;;5032168;28;20083;-75
2021/11/22 01:28:46;;;;;;;67.90;29.63;;;2.10;92.60;;;;;;5035076;28;20303;-75
2021/11/22 01:31:12;;;;;;;52.53;27.10;;;2.20;92.30;;;;;;5028062;28;20064;-74
2021/11/22 01:33:38;;;;;;;89.00;33.65;;;2.20;92.20;;;;;;5033279;28;21342;-74
2021/11/22 01:36:04;;;;;;;108.32;34.40;;;2.20;92.30;;;;;;5032370;28;20115;-74
2021/11/22 01:38:30;;;;;;;103.32;34.47;;;2.20;92.80;;;;;;5028346;28;20064;-74
2021/11/22 01:40:56;;;;;;;64.45;28.90;;;2.10;92.60;;;;;;5033973;28;20038;-75
2021/11/22 01:43:21;;;;;;;63.63;28.42;;;2.20;92.30;;;;;;5034877;28;20060;-75
2021/11/22 01:45:50;;;;;;;47.55;23.15;;;2.10;92.70;;;;;;5049476;28;20107;-75
2021/11/22 01:48:20;;;;;;;50.63;24.52;;;2.10;92.50;;;;;;5033151;28;20181;-76
2021/11/22 01:50:47;;;;;;;30.70;18.25;;;2.10;92.30;;;;;;5035077;28;20103;-76
2021/11/22 01:53:15;;;;;;;34.75;18.20;;;2.20;92.30;;;;;;5027787;28;20017;-76
2021/11/22 01:55:41;;;;;;;27.88;15.50;;;2.20;93.10;;;;;;5035065;28;20054;-76
2021/11/22 01:58:07;;;;;;;26.27;14.75;;;2.10;93.50;;;;;;5031997;28;20022;-76
2021/11/22 02:00:41;;;;;;;27.38;14.88;;;2.20;93.60;;;;;;5038397;28;20483;-75
2021/11/22 02:03:07;;;;;;;;;;;2.20;94.70;;;;;;5037346;28;20060;-75
2021/11/22 02:05:34;;;;;;;24.15;13.65;;;2.20;95.00;;;;;;5036104;28;19909;-75
2021/11/22 02:08:00;;;;;;;22.25;12.65;;;2.20;95.90;;;;;;5036288;28;20029;-75
2021/11/22 02:10:27;;;;;;;19.17;11.45;;;2.20;96.00;;;;;;5033723;28;20088;-74
2021/11/22 02:12:53;;;;;;;21.38;11.45;;;2.20;97.30;;;;;;5033486;28;20513;-75
2021/11/22 02:15:20;;;;;;;20.00;11.40;;;2.20;97.70;;;;;;5035773;28;20025;-75
2021/11/22 02:17:48;;;;;;;23.13;12.20;;;2.20;98.00;;;;;;5029276;28;20418;-75
2021/11/22 02:20:16;;;;;;;19.35;11.70;;;2.20;98.00;;;;;;5035831;28;20060;-75
2021/11/22 02:22:47;;;;;;;17.90;10.55;;;2.30;98.00;;;;;;5035214;28;20036;-76
2021/11/22 02:25:15;;;;;;;15.05;9.60;;;2.20;98.00;;;;;;5035550;28;20338;-75
2021/11/22 02:27:42;;;;;;;21.35;12.48;;;2.30;98.00;;;;;;5035504;28;20032;-75
2021/11/22 02:30:11;;;;;;;19.73;11.48;;;2.30;98.00;;;;;;5034718;28;20036;-75
2021/11/22 02:32:39;;;;;;;18.70;11.35;;;2.30;98.00;;;;;;5036879;28;20028;-75
2021/11/22 02:35:08;;;;;;;20.33;12.05;;;2.30;98.00;;;;;;5037496;28;20033;-75
2021/11/22 02:37:34;;;;;;;20.38;11.80;;;2.40;98.00;;;;;;5036227;28;20036;-75
2021/11/22 02:40:00;;;;;;;19.75;12.15;;;2.40;98.00;;;;;;5034507;28;20033;-76
2021/11/22 02:42:28;;;;;;;21.02;12.43;;;2.30;98.00;;;;;;5034627;28;20036;-74
2021/11/22 02:44:58;;;;;;;24.55;13.77;;;2.40;98.00;;;;;;5034758;28;20033;-75
2021/11/22 02:47:24;;;;;;;26.80;15.27;;;2.30;98.00;;;;;;5035288;28;20022;-75
2021/11/22 02:49:51;;;;;;;42.70;23.13;;;2.30;98.00;;;;;;5033687;28;20418;-75
2021/11/22 02:52:17;;;;;;;27.38;15.57;;;2.30;98.00;;;;;;5035919;28;20424;-75
2021/11/22 02:54:44;;;;;;;43.22;22.00;;;2.30;98.00;;;;;;5033616;28;20032;-75
2021/11/22 02:57:11;;;;;;;34.30;19.17;;;2.30;98.00;;;;;;5036405;28;20025;-75
2021/11/22 02:59:40;;;;;;;39.85;22.17;;;2.30;98.00;;;;;;5034430;28;20071;-75
2021/11/22 03:02:12;;;;;;;38.90;21.77;;;2.30;98.00;;;;;;5032265;28;20025;-75
2021/11/22 03:04:40;;;;;;;34.95;19.90;;;2.30;97.60;;;;;;5036182;28;20048;-75
2021/11/22 03:07:10;;;;;;;41.38;22.20;;;2.30;97.40;;;;;;5036083;28;20024;-76
2021/11/22 03:09:36;;;;;;;47.50;23.95;;;2.30;97.50;;;;;;5033795;28;20045;-75
2021/11/22 03:12:05;;;;;;;41.60;22.83;;;2.30;97.80;;;;;;5035119;28;20026;-76
2021/11/22 03:14:32;;;;;;;38.08;22.30;;;2.30;97.30;;;;;;5035493;28;20370;-75
2021/11/22 03:16:58;;;;;;;30.42;17.55;;;2.30;97.00;;;;;;5033097;28;20406;-75
2021/11/22 03:19:24;;;;;;;48.28;25.10;;;2.40;97.30;;;;;;5022097;28;20104;-75
2021/11/22 03:21:52;;;;;;;42.30;23.35;;;2.30;97.70;;;;;;5036655;28;20021;-75
2021/11/22 03:24:18;;;;;;;41.13;22.05;;;2.30;97.30;;;;;;5034736;28;20017;-75
2021/11/22 03:26:44;;;;;;;42.75;23.58;;;2.20;97.20;;;;;;5036199;28;20104;-75
2021/11/22 03:29:11;;;;;;;41.78;22.80;;;2.20;96.80;;;;;;5033284;28;20031;-75
2021/11/22 03:31:37;;;;;;;45.53;23.15;;;2.20;96.80;;;;;;5035471;28;20033;-75
2021/11/22 03:34:04;;;;;;;44.72;24.65;;;2.20;96.60;;;;;;5036077;28;20068;-75
2021/11/22 03:36:31;;;;;;;51.78;25.77;;;2.20;96.50;;;;;;5034453;28;20115;-75
2021/11/22 03:38:59;;;;;;;56.28;28.05;;;2.20;96.20;;;;;;5033722;28;20025;-75
2021/11/22 03:41:26;;;;;;;47.67;24.63;;;2.20;96.30;;;;;;5034334;28;20029;-75
2021/11/22 03:43:57;;;;;;;36.50;20.90;;;2.10;96.10;;;;;;5034782;28;20069;-75
2021/11/22 03:46:23;;;;;;;38.97;21.95;;;2.10;95.90;;;;;;5034072;28;20030;-75
2021/11/22 03:48:49;;;;;;;41.67;22.65;;;2.20;95.70;;;;;;5034731;28;20457;-75
2021/11/22 03:51:17;;;;;;;53.95;26.33;;;2.20;96.20;;;;;;5035579;28;20068;-75
2021/11/22 03:53:43;;;;;;;35.60;20.40;;;2.20;96.30;;;;;;5034596;28;20128;-75
2021/11/22 03:56:11;;;;;;;46.40;24.25;;;2.20;96.50;;;;;;5035788;28;20021;-75
2021/11/22 03:58:37;;;;;;;46.80;23.55;;;2.20;96.20;;;;;;5034881;28;20524;-75
2021/11/22 04:01:03;;;;;;;38.70;19.88;;;2.20;96.20;;;;;;5030703;28;20037;-75
2021/11/22 04:03:30;;;;;;;41.95;21.75;;;2.20;95.60;;;;;;5035572;28;20029;-74
2021/11/22 04:05:56;;;;;;;47.60;23.75;;;2.20;96.40;;;;;;5034719;28;20025;-75
2021/11/22 04:08:22;;;;;;;38.17;21.23;;;2.20;96.50;;;;;;5034913;28;20033;-75
2021/11/22 04:10:49;;;;;;;35.00;20.45;;;2.20;96.40;;;;;;5033402;28;20426;-75
2021/11/22 04:13:15;;;;;;;37.63;21.02;;;2.30;96.10;;;;;;5034622;28;20029;-76
2021/11/22 04:15:41;;;;;;;37.05;21.30;;;2.30;96.70;;;;;;5033613;28;20036;-75
2021/11/22 04:18:07;;;;;;;39.65;21.27;;;2.30;96.90;;;;;;5034694;28;20049;-75
2021/11/22 04:20:40;;;;;;;34.90;21.50;;;2.20;96.70;;;;;;5034640;28;20068;-75
2021/11/22 04:23:07;;;;;;;41.92;22.67;;;2.20;96.40;;;;;;5035453;28;20040;-75
2021/11/22 04:25:33;;;;;;;50.22;28.50;;;2.20;96.80;;;;;;5033980;28;20128;-74
2021/11/22 04:27:59;;;;;;;72.40;40.25;;;2.20;96.40;;;;;;5033866;28;20036;-73
2021/11/22 04:30:25;;;;;;;40.15;23.63;;;2.20;96.50;;;;;;5033990;28;20044;-74
2021/11/22 04:32:51;;;;;;;43.58;23.55;;;2.20;96.30;;;;;;5015736;28;20022;-74
2021/11/22 04:35:17;;;;;;;39.92;21.30;;;2.20;96.70;;;;;;5026021;28;20049;-76
2021/11/22 04:37:43;;;;;;;50.50;26.48;;;2.20;96.30;;;;;;5033315;28;20060;-76
2021/11/22 04:40:12;;;;;;;39.88;22.75;;;2.20;96.50;;;;;;5032786;28;20351;-76
2021/11/22 04:42:38;;;;;;;33.70;19.17;;;2.20;96.20;;;;;;5033725;28;20025;-77
2021/11/22 04:45:05;;;;;;;41.25;22.80;;;2.20;96.30;;;;;;5034656;28;20656;-76
2021/11/22 04:47:31;;;;;;;50.25;24.27;;;2.20;96.30;;;;;;5066511;28;20021;-76
2021/11/22 04:49:56;;;;;;;45.88;26.85;;;2.20;96.50;;;;;;5034339;28;20112;-76
2021/11/22 04:52:23;;;;;;;39.35;20.60;;;2.20;96.30;;;;;;5035059;28;20029;-76
2021/11/22 04:54:49;;;;;;;36.05;20.02;;;2.20;96.30;;;;;;5031644;28;20115;-76
2021/11/22 04:57:15;;;;;;;32.03;18.58;;;2.20;96.50;;;;;;5031622;28;20030;-75
2021/11/22 04:59:45;;;;;;;35.30;20.10;;;2.10;96.20;;;;;;5032669;28;20048;-75
2021/11/22 05:02:11;;;;;;;29.02;16.67;;;2.10;96.20;;;;;;5034656;28;20402;-76
2021/11/22 05:04:37;;;;;;;28.45;16.80;;;2.20;96.00;;;;;;5035044;28;20033;-75
2021/11/22 05:07:04;;;;;;;29.27;18.40;;;2.20;95.60;;;;;;5031904;28;20111;-76
2021/11/22 05:09:30;;;;;;;28.40;16.35;;;2.20;96.20;;;;;;5032439;28;20050;-76
2021/11/22 05:11:56;;;;;;;27.55;15.88;;;2.20;95.60;;;;;;5034331;28;20048;-75
2021/11/22 05:14:21;;;;;;;32.58;17.80;;;2.20;96.30;;;;;;5037003;28;20025;-75
2021/11/22 05:16:47;;;;;;;36.00;19.23;;;2.10;96.40;;;;;;5037354;28;20029;-75
2021/11/22 05:19:14;;;;;;;28.23;16.40;;;2.10;96.20;;;;;;5037816;28;20025;-75
2021/11/22 05:21:40;;;;;;;34.10;18.38;;;2.10;96.10;;;;;;5037591;28;20026;-75
2021/11/22 05:24:07;;;;;;;29.02;16.83;;;2.20;96.20;;;;;;5036420;28;20017;-75
2021/11/22 05:26:34;;;;;;;28.73;16.60;;;2.20;96.10;;;;;;5035963;28;20484;-75
2021/11/22 05:29:00;;;;;;;29.25;16.92;;;2.20;95.90;;;;;;5036707;28;20024;-75
2021/11/22 05:31:26;;;;;;;30.42;17.90;;;2.20;96.30;;;;;;5037046;28;20116;-75
2021/11/22 05:33:52;;;;;;;30.67;17.05;;;2.20;96.10;;;;;;5037295;28;20104;-75
2021/11/22 05:36:18;;;;;;;23.88;14.70;;;2.20;96.00;;;;;;5037264;28;20025;-75
2021/11/22 05:38:44;;;;;;;26.13;15.20;;;2.20;95.90;;;;;;5036149;28;20105;-75
2021/11/22 05:41:10;;;;;;;35.78;21.75;;;2.30;95.90;;;;;;5037866;28;20056;-75
2021/11/22 05:43:36;;;;;;;31.98;17.95;;;2.30;96.20;;;;;;5036751;28;20099;-76
2021/11/22 05:46:04;;;;;;;26.45;15.82;;;2.20;96.30;;;;;;5037099;28;20033;-75
2021/11/22 05:48:31;;;;;;;28.63;17.00;;;2.20;96.10;;;;;;5036591;28;20393;-76
2021/11/22 05:50:58;;;;;;;38.45;19.50;;;2.20;96.10;;;;;;5035603;28;20076;-75
2021/11/22 05:53:24;;;;;;;38.67;20.20;;;2.20;96.20;;;;;;5036903;28;20140;-75
2021/11/22 05:55:52;;;;;;;39.63;20.52;;;2.20;96.20;;;;;;5033565;28;20045;-74
2021/11/22 05:58:19;;;;;;;38.70;20.27;;;2.20;96.20;;;;;;5037637;28;20415;-76
2021/11/22 06:00:45;;;;;;;31.25;17.98;;;2.20;96.20;;;;;;5037174;28;20071;-75
2021/11/22 06:03:12;;;;;;;34.78;17.90;;;2.20;95.90;;;;;;5036531;28;20592;-76
2021/11/22 06:05:37;;;;;;;33.28;18.10;;;2.20;96.20;;;;;;5034947;28;20029;-76
2021/11/22 06:08:04;;;;;;;30.77;16.95;;;2.30;96.10;;;;;;5037000;28;20078;-75
2021/11/22 06:10:31;;;;;;;28.80;16.48;;;2.30;96.30;;;;;;5034641;28;20410;-75
2021/11/22 06:12:57;;;;;;;29.40;15.70;;;2.30;96.20;;;;;;5037170;28;20318;-75
2021/11/22 06:15:23;;;;;;;28.40;15.18;;;2.30;96.20;;;;;;5036734;28;20022;-75
2021/11/22 06:17:49;;;;;;;26.20;15.25;;;2.20;96.40;;;;;;5028733;28;20029;-75
2021/11/22 06:20:15;;;;;;;23.38;14.52;;;2.20;96.40;;;;;;5034700;28;20053;-75
2021/11/22 06:22:40;;;;;;;29.73;16.02;;;2.30;96.00;;;;;;5036404;28;20065;-76
2021/11/22 06:25:07;;;;;;;34.78;18.33;;;2.30;96.60;;;;;;5033708;28;20034;-75
2021/11/22 06:27:33;;;;;;;34.22;18.05;;;2.20;96.80;;;;;;5040317;28;20036;-76
2021/11/22 06:30:00;;;;;;;31.58;16.42;;;2.20;96.60;;;;;;5040837;28;20084;-74
2021/11/22 06:32:27;;;;;;;35.40;17.42;;;2.20;96.30;;;;;;5036139;28;20377;-75
2021/11/22 06:34:54;;;;;;;33.40;17.48;;;2.30;95.60;;;;;;5036210;28;20367;-76
2021/11/22 06:37:25;;;;;;;34.40;18.17;;;2.30;95.90;;;;;;5029627;28;20025;-75
2021/11/22 06:39:51;;;;;;;33.60;17.13;;;2.30;95.90;;;;;;5033317;28;20025;-74
2021/11/22 06:42:19;;;;;;;44.95;20.10;;;2.40;95.60;;;;;;5034385;28;20397;-74
2021/11/22 06:44:45;;;;;;;27.88;16.17;;;2.30;96.40;;;;;;5036257;28;20037;-75
2021/11/22 06:47:11;;;;;;;34.20;16.73;;;2.30;95.50;;;;;;5035250;28;20365;-75
2021/11/22 06:49:37;;;;;;;52.60;21.48;;;2.30;96.20;;;;;;5033844;28;20048;-76
2021/11/22 06:52:03;;;;;;;29.63;16.52;;;2.30;96.20;;;;;;5036051;28;20029;-76
2021/11/22 06:54:29;;;;;;;34.08;17.08;;;2.30;95.70;;;;;;5034650;28;20029;-76
2021/11/22 06:56:55;;;;;;;34.40;17.70;;;2.30;96.20;;;;;;5035133;28;20342;-76
2021/11/22 06:59:21;;;;;;;44.85;20.63;;;2.20;96.40;;;;;;5036721;28;20022;-76
2021/11/22 07:01:46;;;;;;;41.25;18.80;;;2.20;96.50;;;;;;5035725;28;20342;-76
2021/11/22 07:04:12;;;;;;;34.63;19.15;;;2.10;96.30;;;;;;5036329;28;20025;-77
2021/11/22 07:06:38;;;;;;;44.80;21.90;;;2.10;95.90;;;;;;5035748;28;20036;-77
2021/11/22 07:09:07;;;;;;;42.40;20.20;;;2.10;95.70;;;;;;5035197;28;20053;-77
2021/11/22 07:11:33;;;;;;;40.42;20.05;;;2.00;95.60;;;;;;5036378;28;20095;-77
2021/11/22 07:14:01;;;;;;;34.17;17.73;;;2.00;95.40;;;;;;5036261;28;20100;-77
2021/11/22 07:16:27;;;;;;;28.27;15.25;;;2.00;95.20;;;;;;5028639;28;20022;-77
2021/11/22 07:18:52;;;;;;;24.60;14.32;;;2.00;95.20;;;;;;5016526;28;20034;-76
2021/11/22 07:21:18;;;;;;;34.55;17.92;;;2.00;95.20;;;;;;5015727;28;20036;-76
2021/11/22 07:23:44;;;;;;;32.83;18.67;;;2.10;94.90;;;;;;5030961;28;20032;-76
2021/11/22 07:26:09;;;;;;;31.23;16.92;;;2.10;95.10;;;;;;5036245;28;20402;-76
2021/11/22 07:28:35;;;;;;;29.60;16.52;;;2.10;95.30;;;;;;5036306;28;20100;-76
2021/11/22 07:31:04;;;;;;;24.38;13.80;;;2.20;95.00;;;;;;5035065;28;20030;-77
2021/11/22 07:33:29;;;;;;;23.08;13.43;;;2.30;94.70;;;;;;5035452;28;20072;-78
2021/11/22 07:35:55;;;;;;;22.90;13.80;;;2.40;94.70;;;;;;5035629;28;20053;-77
2021/11/22 07:38:21;;;;;;;22.58;13.05;;;2.30;95.60;;;;;;5036098;28;20079;-78
2021/11/22 07:40:47;;;;;;;20.45;12.35;;;2.30;95.60;;;;;;5034833;28;20025;-78
2021/11/22 07:43:15;;;;;;;23.98;13.10;;;2.40;95.40;;;;;;5035096;28;20108;-76
2021/11/22 07:45:41;;;;;;;21.60;12.52;;;2.40;95.50;;;;;;5035110;28;20431;-77
2021/11/22 07:48:07;;;;;;;16.38;9.40;;;2.40;95.50;;;;;;5035985;28;20151;-76
2021/11/22 07:50:32;;;;;;;19.95;10.73;;;2.40;96.10;;;;;;5035692;28;20147;-77
2021/11/22 07:52:58;;;;;;;18.23;10.52;;;2.40;96.10;;;;;;5034974;28;20318;-76
2021/11/22 07:55:27;;;;;;;15.68;9.57;;;2.40;96.20;;;;;;5033778;28;20092;-76
2021/11/22 07:57:54;;;;;;;18.25;11.00;;;2.50;95.60;;;;;;5035888;28;20056;-77
2021/11/22 08:00:22;;;;;;;17.20;9.90;;;2.50;96.80;;;;;;5035554;28;20032;-76
2021/11/22 08:02:48;;;;;;;18.85;10.93;;;2.50;97.20;;;;;;5034911;28;20052;-76
2021/11/22 08:05:14;;;;;;;18.48;10.68;;;2.50;97.50;;;;;;5035572;28;20033;-76
2021/11/22 08:07:42;;;;;;;16.73;9.35;;;2.50;97.10;;;;;;5035583;28;20350;-76
2021/11/22 08:10:30;;;;;;;14.80;8.70;;;2.60;97.60;;;;;;5034450;28;20041;-77
2021/11/22 08:13:04;;;;;;;18.75;10.57;;;2.60;97.70;;;;;;5016933;28;20042;-76
2021/11/22 08:15:33;;;;;;;81.85;48.53;;;2.70;97.70;;;;;;5014720;28;20026;-77
2021/11/22 08:18:01;;;;;;;43.33;25.92;;;2.70;97.80;;;;;;5015669;28;20084;-76
2021/11/22 08:20:27;;;;;;;36.10;21.88;;;2.70;98.00;;;;;;5034895;28;20311;-77
2021/11/22 08:22:53;;;;;;;14.43;8.90;;;2.80;98.00;;;;;;5034375;28;20026;-77
2021/11/22 08:25:21;;;;;;;14.15;9.18;;;2.80;97.90;;;;;;5034399;28;20068;-77
2021/11/22 08:27:47;;;;;;;34.20;24.05;;;2.80;98.00;;;;;;5035445;28;20021;-76
2021/11/22 08:30:17;;;;;;;15.07;10.43;;;2.80;98.00;;;;;;5034466;28;20033;-77
2021/11/22 08:32:44;;;;;;;13.20;8.10;;;2.70;98.00;;;;;;5034431;28;20052;-76
2021/11/22 08:35:11;;;;;;;10.75;6.05;;;2.70;98.00;;;;;;5035077;28;20025;-77
2021/11/22 08:37:38;;;;;;;11.25;7.07;;;2.70;98.00;;;;;;5034355;28;20022;-77
2021/11/22 08:40:07;;;;;;;13.98;8.90;;;2.70;97.50;;;;;;5031983;28;20029;-77
2021/11/22 08:42:32;;;;;;;13.23;7.40;;;2.80;98.00;;;;;;5035184;28;20018;-77
2021/11/22 08:45:00;;;;;;;12.63;8.38;;;2.80;98.00;;;;;;5035437;28;20026;-76
2021/11/22 08:47:26;;;;;;;11.73;7.80;;;2.80;98.00;;;;;;5028982;28;20026;-77
2021/11/22 08:49:52;;;;;;;8.90;5.35;;;2.80;97.90;;;;;;5024059;28;20037;-77
2021/11/22 08:52:19;;;;;;;8.60;5.38;;;2.80;97.70;;;;;;5039229;28;20108;-77
2021/11/22 08:54:45;;;;;;;8.10;4.63;;;2.90;97.70;;;;;;5037960;28;20030;-77
2021/11/22 08:57:11;;;;;;;7.95;4.80;;;3.00;98.00;;;;;;5037186;28;20026;-77
2021/11/22 08:59:38;;;;;;;10.15;4.85;;;3.00;98.00;;;;;;5037762;28;20436;-77
2021/11/22 09:02:04;;;;;;;7.80;4.60;;;3.10;98.00;;;;;;5039042;28;20104;-77
2021/11/22 09:04:30;;;;;;;8.35;4.28;;;3.10;98.00;;;;;;5038995;28;20096;-77
2021/11/22 09:06:57;;;;;;;7.68;4.82;;;3.10;98.00;;;;;;5038147;28;20024;-77
2021/11/22 09:09:23;;;;;;;9.40;5.45;;;3.20;98.00;;;;;;5037443;28;20068;-77
2021/11/22 09:11:49;;;;;;;9.18;5.10;;;3.30;97.80;;;;;;5038883;28;20076;-76
2021/11/22 09:14:15;;;;;;;8.35;4.85;;;3.30;98.00;;;;;;5037819;28;20181;-77
2021/11/22 09:16:41;;;;;;;9.20;5.03;;;3.30;98.00;;;;;;5037961;28;20037;-77
2021/11/22 09:19:08;;;;;;;8.90;4.95;;;3.30;98.00;;;;;;5038604;28;20032;-76
2021/11/22 09:21:34;;;;;;;8.70;4.75;;;3.20;98.00;;;;;;5038416;28;20029;-77
2021/11/22 09:24:01;;;;;;;9.20;5.43;;;3.20;98.00;;;;;;5037440;28;20041;-77
2021/11/22 09:26:28;;;;;;;8.73;4.88;;;3.20;98.00;;;;;;5037891;28;20018;-76
2021/11/22 09:28:53;;;;;;;9.20;5.47;;;3.30;98.00;;;;;;5034317;28;20033;-77
2021/11/22 09:31:20;;;;;;;12.38;5.78;;;3.30;97.60;;;;;;5034717;28;20068;-76
2021/11/22 09:33:47;;;;;;;9.63;5.32;;;3.40;97.90;;;;;;5037780;28;20119;-76
2021/11/22 09:36:14;;;;;;;10.60;5.97;;;3.50;97.90;;;;;;5037114;28;20049;-77
2021/11/22 09:38:40;;;;;;;9.45;5.57;;;3.60;98.00;;;;;;5036580;28;20028;-76
2021/11/22 09:41:07;;;;;;;11.48;6.22;;;3.60;98.00;;;;;;5037273;28;20029;-77
2021/11/22 09:43:33;;;;;;;9.73;5.68;;;3.60;98.00;;;;;;5038061;28;20021;-77
2021/11/22 09:45:59;;;;;;;9.85;5.68;;;3.50;98.00;;;;;;5038318;28;20375;-77
2021/11/22 09:48:25;;;;;;;9.60;5.63;;;3.50;98.00;;;;;;5037468;28;20080;-77
2021/11/22 09:50:52;;;;;;;12.00;6.82;;;3.50;98.00;;;;;;5038045;28;20061;-77
2021/11/22 09:53:18;;;;;;;12.75;6.93;;;3.40;98.00;;;;;;5038111;28;20071;-77
2021/11/22 09:55:50;;;;;;;12.93;7.53;;;3.50;98.00;;;;;;5036908;28;20025;-77
2021/11/22 09:58:16;;;;;;;13.13;7.25;;;3.60;97.50;;;;;;5032139;28;20029;-77
2021/11/22 10:00:46;;;;;;;13.80;7.18;;;3.70;98.00;;;;;;5037874;28;20037;-77
2021/11/22 10:03:23;;;;;;;10.20;6.25;;;3.80;98.00;;;;;;5037876;28;20029;-77
2021/11/22 10:05:59;;;;;;;12.15;6.75;;;3.90;98.00;;;;;;5036923;28;20032;-77
2021/11/22 10:08:25;;;;;;;11.35;6.55;;;3.90;98.00;;;;;;5034821;28;20029;-77
2021/11/22 10:10:56;;;;;;;12.68;7.25;;;4.00;98.00;;;;;;5031086;28;20041;-77
2021/11/22 10:13:36;;;;;;;11.40;6.70;;;4.10;98.00;;;;;;5036481;28;20021;-76
2021/11/22 10:16:07;;;;;;;15.35;8.35;;;4.10;98.00;;;;;;5037691;28;20024;-75
2021/11/22 10:18:38;;;;;;;13.98;7.97;;;4.10;98.00;;;;;;5037531;28;20029;-76
2021/11/22 10:21:08;;;;;;;13.65;8.25;;;4.10;98.00;;;;;;5036832;28;20295;-76
2021/11/22 10:23:37;;;;;;;13.15;7.97;;;4.10;98.00;;;;;;5036281;28;20029;-76
2021/11/22 10:26:04;;;;;;;13.43;7.88;;;4.30;98.00;;;;;;5036434;28;20030;-77
2021/11/22 10:28:36;;;;;;;12.20;7.18;;;4.30;98.00;;;;;;5037664;28;20022;-77
2021/11/22 10:31:27;;;;;;;12.32;7.35;;;4.40;98.00;;;;;;5028270;28;20032;-76
2021/11/22 10:33:57;;;;;;;13.25;8.07;;;4.40;98.00;;;;;;5028150;28;20505;-76
2021/11/22 10:36:24;;;;;;;18.00;10.57;;;4.30;98.00;;;;;;5037388;28;20071;-77
2021/11/22 10:38:52;;;;;;;15.18;9.05;;;4.30;98.00;;;;;;5035979;28;20044;-76
2021/11/22 10:41:25;;;;;;;18.48;10.38;;;4.30;98.00;;;;;;5036276;28;20033;-76
2021/11/22 10:43:53;;;;;;;15.55;8.95;;;4.30;98.00;;;;;;5037036;28;20053;-76
2021/11/22 10:46:26;;;;;;;18.70;11.25;;;4.20;98.00;;;;;;5037112;28;20030;-76
2021/11/22 10:48:53;;;;;;;18.92;11.30;;;4.20;98.00;;;;;;5036676;28;20025;-76
2021/11/22 10:51:27;;;;;;;22.88;13.48;;;4.20;98.00;;;;;;5036360;28;20032;-76
2021/11/22 10:54:04;;;;;;;17.30;10.85;;;4.10;98.00;;;;;;5035784;28;20479;-76
2021/11/22 10:56:46;;;;;;;18.92;11.07;;;4.10;98.00;;;;;;5037004;28;20372;-76
2021/11/22 10:59:14;;;;;;;16.10;9.88;;;4.10;98.00;;;;;;5036870;28;20025;-76
2021/11/22 11:01:47;;;;;;;16.92;10.70;;;4.20;98.00;;;;;;5034763;28;20061;-76
2021/11/22 11:04:16;;;;;;;20.70;12.07;;;4.40;98.00;;;;;;5036807;28;20021;-76
2021/11/22 11:06:53;;;;;;;17.83;11.77;;;4.50;98.00;;;;;;5035814;28;20406;-76
2021/11/22 11:09:26;;;;;;;25.95;14.88;;;4.50;98.00;;;;;;5034871;28;20041;-76
2021/11/22 11:12:10;;;;;;;22.65;13.70;;;4.40;98.00;;;;;;5034166;28;20168;-76
2021/11/22 11:14:39;;;;;;;17.48;10.60;;;4.30;98.00;;;;;;5035489;28;20021;-76
2021/11/22 11:17:15;;;;;;;19.05;11.38;;;4.30;98.00;;;;;;5036636;28;20109;-76
2021/11/22 11:19:41;;;;;;;19.30;12.30;;;4.30;98.00;;;;;;5036252;28;20124;-76
2021/11/22 11:22:08;;;;;;;18.98;11.55;;;4.20;98.00;;;;;;5034668;28;20416;-76
2021/11/22 11:24:35;;;;;;;19.65;12.13;;;4.30;98.00;;;;;;5035263;28;20418;-76
2021/11/22 11:27:00;;;;;;;21.45;11.98;;;4.20;98.00;;;;;;5036167;28;20333;-76
2021/11/22 11:29:26;;;;;;;21.17;12.50;;;4.20;98.00;;;;;;5035255;28;20101;-76
2021/11/22 11:31:52;;;;;;;22.58;13.57;;;4.20;98.00;;;;;;5035483;28;20062;-77
2021/11/22 11:34:18;;;;;;;25.05;15.23;;;4.20;98.00;;;;;;5036418;28;20028;-77
2021/11/22 11:37:18;;;;;;;24.88;15.30;;;4.20;97.60;;;;;;5036190;28;20504;-76
2021/11/22 11:40:15;;;;;;;22.30;13.77;;;4.10;97.30;;;;;;5034914;28;20024;-77
2021/11/22 11:42:59;;;;;;;30.95;16.08;;;4.10;96.80;;;;;;5017329;28;20030;-76
2021/11/22 11:45:31;;;;;;;;;;;4.10;96.20;;;;;;5017500;28;20072;-76
2021/11/22 11:48:08;;;;;;;34.60;18.65;;;4.10;96.30;;;;;;5031215;28;19952;-76
2021/11/22 11:50:38;;;;;;;29.77;17.52;;;3.90;96.30;;;;;;5034959;28;20064;-75
2021/11/22 11:53:09;;;;;;;27.75;15.75;;;3.90;95.50;;;;;;5035868;28;20026;-76
2021/11/22 11:55:36;;;;;;;24.48;14.98;;;3.90;95.00;;;;;;5033741;28;20072;-76
2021/11/22 11:58:24;;;;;;;26.15;15.27;;;3.90;94.90;;;;;;5035266;28;20171;-76
2021/11/22 12:00:54;;;;;;;24.75;14.15;;;3.90;94.90;;;;;;5016063;28;20088;-76
2021/11/22 12:03:21;;;;;;;29.67;16.40;;;3.90;94.90;;;;;;5016148;28;20083;-76
2021/11/22 12:05:53;;;;;;;25.73;14.38;;;3.80;95.00;;;;;;5022017;28;20029;-76
2021/11/22 12:08:26;;;;;;;23.67;13.02;;;3.80;94.60;;;;;;5034232;28;20029;-76
2021/11/22 12:10:56;;;;;;;24.15;13.50;;;3.90;94.60;;;;;;5035676;28;20495;-76
2021/11/22 12:13:22;;;;;;;24.10;14.75;;;3.80;95.00;;;;;;5034669;28;20033;-76
2021/11/22 12:15:50;;;;;;;37.53;23.70;;;3.80;94.80;;;;;;5034905;28;20032;-76
2021/11/22 12:18:30;;;;;;;26.73;16.30;;;3.80;94.60;;;;;;5034515;28;20303;-76
2021/11/22 12:21:20;;;;;;;24.85;15.80;;;3.80;95.00;;;;;;5034956;28;20025;-76
2021/11/22 12:23:48;;;;;;;21.45;12.95;;;3.80;94.50;;;;;;5034388;28;20059;-76
2021/11/22 12:26:31;;;;;;;25.73;18.60;;;3.90;94.30;;;;;;5034742;28;20033;-75
2021/11/22 12:28:58;;;;;;;28.15;16.10;;;3.90;94.50;;;;;;5035083;28;20112;-76
2021/11/22 12:31:27;;;;;;;24.38;14.38;;;3.90;94.60;;;;;;5035388;28;20021;-77
2021/11/22 12:34:01;;;;;;;27.35;16.35;;;3.90;94.90;;;;;;5033595;28;20424;-76
2021/11/22 12:36:29;;;;;;;20.15;13.38;;;3.90;94.80;;;;;;5034730;28;20026;-76
2021/11/22 12:39:05;;;;;;;24.90;15.13;;;4.00;94.40;;;;;;5033126;28;20021;-76
2021/11/22 12:41:33;;;;;;;20.63;12.05;;;3.90;95.10;;;;;;5035283;28;20410;-76
2021/11/22 12:44:00;;;;;;;21.52;13.18;;;4.00;94.80;;;;;;5035477;28;20049;-76